sensor_id;sensor_type;location;lat;lon;timestamp;temperature;humidity
53645;DHT22;39547;45.554;12.068;2022-12-10T00:00:37;7.20;95.00
53645;DHT22;39547;45.554;12.068;2022-12-10T00:06:40;7.20;95.10
53645;DHT22;39547;45.554;12.068;2022-12-10T00:12:42;7.20;95.00
53645;DHT22;39547;45.554;12.068;2022-12-10T00:18:44;7.20;95.00
53645;DHT22;39547;45.554;12.068;2022-12-10T00:24:46;7.20;95.10
53645;DHT22;39547;45.554;12.068;2022-12-10T00:30:47;7.30;95.00
53645;DHT22;39547;45.554;12.068;2022-12-10T00:36:49;7.20;94.90
53645;DHT22;39547;45.554;12.068;2022-12-10T00:42:51;7.20;94.90
53645;DHT22;39547;45.554;12.068;2022-12-10T00:48:53;7.20;94.90
53645;DHT22;39547;45.554;12.068;2022-12-10T00:54:55;7.20;94.80
53645;DHT22;39547;45.554;12.068;2022-12-10T01:01:12;7.20;94.80
53645;DHT22;39547;45.554;12.068;2022-12-10T01:07:13;7.10;94.80
53645;DHT22;39547;45.554;12.068;2022-12-10T01:13:15;7.10;94.60
53645;DHT22;39547;45.554;12.068;2022-12-10T01:19:16;6.90;94.50
53645;DHT22;39547;45.554;12.068;2022-12-10T01:25:18;6.90;94.80
53645;DHT22;39547;45.554;12.068;2022-12-10T01:31:22;7.00;95.00
53645;DHT22;39547;45.554;12.068;2022-12-10T01:37:25;7.00;95.00
53645;DHT22;39547;45.554;12.068;2022-12-10T01:43:27;7.00;95.00
53645;DHT22;39547;45.554;12.068;2022-12-10T01:49:34;7.00;94.90
53645;DHT22;39547;45.554;12.068;2022-12-10T01:55:48;7.00;94.70
53645;DHT22;39547;45.554;12.068;2022-12-10T02:08:37;7.00;94.90
53645;DHT22;39547;45.554;12.068;2022-12-10T02:14:47;7.00;94.90
53645;DHT22;39547;45.554;12.068;2022-12-10T02:21:16;7.00;94.80
53645;DHT22;39547;45.554;12.068;2022-12-10T02:27:29;7.00;94.90
53645;DHT22;39547;45.554;12.068;2022-12-10T02:33:33;6.90;94.80
53645;DHT22;39547;45.554;12.068;2022-12-10T02:39:44;7.00;94.90
53645;DHT22;39547;45.554;12.068;2022-12-10T02:45:47;7.00;94.80
53645;DHT22;39547;45.554;12.068;2022-12-10T02:51:49;7.00;94.80
53645;DHT22;39547;45.554;12.068;2022-12-10T02:58:26;6.90;94.80
53645;DHT22;39547;45.554;12.068;2022-12-10T03:11:14;7.00;94.80
53645;DHT22;39547;45.554;12.068;2022-12-10T03:17:16;7.00;94.80
53645;DHT22;39547;45.554;12.068;2022-12-10T03:23:18;6.90;94.80
53645;DHT22;39547;45.554;12.068;2022-12-10T03:29:42;6.90;94.70
53645;DHT22;39547;45.554;12.068;2022-12-10T03:35:45;6.90;94.80
53645;DHT22;39547;45.554;12.068;2022-12-10T03:41:47;6.90;94.60
53645;DHT22;39547;45.554;12.068;2022-12-10T03:47:49;6.80;94.80
53645;DHT22;39547;45.554;12.068;2022-12-10T03:53:50;6.80;94.80
53645;DHT22;39547;45.554;12.068;2022-12-10T03:59:52;6.90;94.90
53645;DHT22;39547;45.554;12.068;2022-12-10T04:05:53;6.90;94.90
53645;DHT22;39547;45.554;12.068;2022-12-10T04:11:56;6.90;94.90
53645;DHT22;39547;45.554;12.068;2022-12-10T04:17:58;6.80;94.80
53645;DHT22;39547;45.554;12.068;2022-12-10T04:23:59;6.80;94.90
53645;DHT22;39547;45.554;12.068;2022-12-10T04:30:19;6.80;94.80
53645;DHT22;39547;45.554;12.068;2022-12-10T04:36:21;6.70;94.50
53645;DHT22;39547;45.554;12.068;2022-12-10T04:42:23;6.70;94.80
53645;DHT22;39547;45.554;12.068;2022-12-10T04:48:25;6.70;94.80
53645;DHT22;39547;45.554;12.068;2022-12-10T04:54:26;6.80;94.80
53645;DHT22;39547;45.554;12.068;2022-12-10T05:00:28;6.80;94.70
53645;DHT22;39547;45.554;12.068;2022-12-10T05:06:30;6.80;94.80
53645;DHT22;39547;45.554;12.068;2022-12-10T05:12:32;6.80;94.80
53645;DHT22;39547;45.554;12.068;2022-12-10T05:18:34;6.80;94.90
53645;DHT22;39547;45.554;12.068;2022-12-10T05:24:35;6.80;94.70
53645;DHT22;39547;45.554;12.068;2022-12-10T05:30:37;6.80;94.70
53645;DHT22;39547;45.554;12.068;2022-12-10T05:36:38;6.80;94.80
53645;DHT22;39547;45.554;12.068;2022-12-10T05:42:40;6.90;94.90
53645;DHT22;39547;45.554;12.068;2022-12-10T05:48:41;6.90;94.70
53645;DHT22;39547;45.554;12.068;2022-12-10T05:54:43;6.90;94.70
53645;DHT22;39547;45.554;12.068;2022-12-10T06:00:44;6.90;94.70
53645;DHT22;39547;45.554;12.068;2022-12-10T06:06:45;6.90;94.80
53645;DHT22;39547;45.554;12.068;2022-12-10T06:12:48;7.00;94.80
53645;DHT22;39547;45.554;12.068;2022-12-10T06:18:50;7.00;94.70
53645;DHT22;39547;45.554;12.068;2022-12-10T06:24:51;7.00;94.80
53645;DHT22;39547;45.554;12.068;2022-12-10T06:30:52;7.00;94.70
53645;DHT22;39547;45.554;12.068;2022-12-10T06:36:54;7.00;94.80
53645;DHT22;39547;45.554;12.068;2022-12-10T06:42:55;7.10;94.90
53645;DHT22;39547;45.554;12.068;2022-12-10T06:48:56;7.10;94.90
53645;DHT22;39547;45.554;12.068;2022-12-10T06:54:58;7.20;94.90
53645;DHT22;39547;45.554;12.068;2022-12-10T07:01:18;7.20;94.90
53645;DHT22;39547;45.554;12.068;2022-12-10T07:07:22;7.20;94.90
53645;DHT22;39547;45.554;12.068;2022-12-10T07:13:24;7.20;94.90
53645;DHT22;39547;45.554;12.068;2022-12-10T07:19:26;7.20;95.00
53645;DHT22;39547;45.554;12.068;2022-12-10T07:25:27;7.30;95.00
53645;DHT22;39547;45.554;12.068;2022-12-10T07:31:29;7.30;94.90
53645;DHT22;39547;45.554;12.068;2022-12-10T07:37:30;7.30;95.00
53645;DHT22;39547;45.554;12.068;2022-12-10T07:43:39;7.30;94.90
53645;DHT22;39547;45.554;12.068;2022-12-10T07:49:41;7.40;95.00
53645;DHT22;39547;45.554;12.068;2022-12-10T07:55:44;7.40;94.90
53645;DHT22;39547;45.554;12.068;2022-12-10T08:01:46;7.40;95.00
53645;DHT22;39547;45.554;12.068;2022-12-10T08:07:47;7.50;95.00
53645;DHT22;39547;45.554;12.068;2022-12-10T08:13:49;7.40;94.80
53645;DHT22;39547;45.554;12.068;2022-12-10T08:19:51;7.40;94.90
53645;DHT22;39547;45.554;12.068;2022-12-10T08:25:52;7.50;95.00
53645;DHT22;39547;45.554;12.068;2022-12-10T08:31:54;7.50;95.00
53645;DHT22;39547;45.554;12.068;2022-12-10T08:37:55;7.50;95.00
53645;DHT22;39547;45.554;12.068;2022-12-10T08:43:57;7.50;94.90
53645;DHT22;39547;45.554;12.068;2022-12-10T08:49:59;7.40;94.80
53645;DHT22;39547;45.554;12.068;2022-12-10T08:56:01;7.40;94.70
53645;DHT22;39547;45.554;12.068;2022-12-10T09:02:03;7.40;94.80
53645;DHT22;39547;45.554;12.068;2022-12-10T09:08:04;7.30;94.80
53645;DHT22;39547;45.554;12.068;2022-12-10T09:14:06;7.50;94.90
53645;DHT22;39547;45.554;12.068;2022-12-10T09:20:07;7.60;95.00
53645;DHT22;39547;45.554;12.068;2022-12-10T09:26:12;7.60;95.00
53645;DHT22;39547;45.554;12.068;2022-12-10T09:32:14;7.60;95.00
53645;DHT22;39547;45.554;12.068;2022-12-10T09:38:15;7.70;95.00
53645;DHT22;39547;45.554;12.068;2022-12-10T09:51:12;7.70;95.00
53645;DHT22;39547;45.554;12.068;2022-12-10T09:57:28;7.80;95.10
53645;DHT22;39547;45.554;12.068;2022-12-10T10:03:35;7.80;95.10
53645;DHT22;39547;45.554;12.068;2022-12-10T10:09:40;7.90;95.20
53645;DHT22;39547;45.554;12.068;2022-12-10T10:15:44;7.90;95.30
53645;DHT22;39547;45.554;12.068;2022-12-10T10:21:48;8.10;95.40
53645;DHT22;39547;45.554;12.068;2022-12-10T10:27:49;8.10;95.30
53645;DHT22;39547;45.554;12.068;2022-12-10T10:33:57;8.20;95.30
53645;DHT22;39547;45.554;12.068;2022-12-10T10:39:59;8.30;95.50
53645;DHT22;39547;45.554;12.068;2022-12-10T10:46:11;8.40;95.60
53645;DHT22;39547;45.554;12.068;2022-12-10T10:52:15;8.40;95.60
53645;DHT22;39547;45.554;12.068;2022-12-10T10:58:19;8.50;95.60
53645;DHT22;39547;45.554;12.068;2022-12-10T11:04:44;8.60;95.70
53645;DHT22;39547;45.554;12.068;2022-12-10T11:11:05;8.70;95.70
53645;DHT22;39547;45.554;12.068;2022-12-10T11:23:13;8.70;95.70
53645;DHT22;39547;45.554;12.068;2022-12-10T11:36:16;8.90;95.80
53645;DHT22;39547;45.554;12.068;2022-12-10T11:42:39;9.00;95.80
53645;DHT22;39547;45.554;12.068;2022-12-10T12:14:54;9.60;95.70
53645;DHT22;39547;45.554;12.068;2022-12-10T12:21:04;9.60;95.70
53645;DHT22;39547;45.554;12.068;2022-12-10T12:27:35;9.60;95.60
53645;DHT22;39547;45.554;12.068;2022-12-10T12:34:06;9.60;95.60
53645;DHT22;39547;45.554;12.068;2022-12-10T12:40:30;9.60;95.70
53645;DHT22;39547;45.554;12.068;2022-12-10T12:46:39;9.70;95.70
53645;DHT22;39547;45.554;12.068;2022-12-10T12:52:53;9.70;95.70
53645;DHT22;39547;45.554;12.068;2022-12-10T13:05:03;9.70;95.70
53645;DHT22;39547;45.554;12.068;2022-12-10T13:11:18;9.70;95.70
53645;DHT22;39547;45.554;12.068;2022-12-10T13:17:28;9.70;95.70
53645;DHT22;39547;45.554;12.068;2022-12-10T13:23:34;9.70;95.70
53645;DHT22;39547;45.554;12.068;2022-12-10T13:36:13;9.70;95.70
53645;DHT22;39547;45.554;12.068;2022-12-10T13:48:37;9.70;95.70
53645;DHT22;39547;45.554;12.068;2022-12-10T14:07:12;9.70;95.70
53645;DHT22;39547;45.554;12.068;2022-12-10T14:13:16;9.70;95.70
53645;DHT22;39547;45.554;12.068;2022-12-10T14:19:20;9.70;95.70
53645;DHT22;39547;45.554;12.068;2022-12-10T14:25:22;9.70;95.70
53645;DHT22;39547;45.554;12.068;2022-12-10T14:31:31;9.60;95.70
53645;DHT22;39547;45.554;12.068;2022-12-10T14:37:36;9.60;95.80
53645;DHT22;39547;45.554;12.068;2022-12-10T14:43:40;9.60;95.80
53645;DHT22;39547;45.554;12.068;2022-12-10T14:49:44;9.50;95.80
53645;DHT22;39547;45.554;12.068;2022-12-10T14:55:50;9.50;95.80
53645;DHT22;39547;45.554;12.068;2022-12-10T15:01:54;9.50;95.80
53645;DHT22;39547;45.554;12.068;2022-12-10T15:08:05;9.40;95.80
53645;DHT22;39547;45.554;12.068;2022-12-10T15:14:16;9.40;95.80
53645;DHT22;39547;45.554;12.068;2022-12-10T15:20:21;9.30;95.80
53645;DHT22;39547;45.554;12.068;2022-12-10T15:26:25;9.30;95.80
53645;DHT22;39547;45.554;12.068;2022-12-10T15:32:29;9.30;95.80
53645;DHT22;39547;45.554;12.068;2022-12-10T15:38:31;9.20;95.80
53645;DHT22;39547;45.554;12.068;2022-12-10T15:44:41;9.20;95.80
53645;DHT22;39547;45.554;12.068;2022-12-10T15:50:46;9.20;95.90
53645;DHT22;39547;45.554;12.068;2022-12-10T15:56:49;9.20;95.90
53645;DHT22;39547;45.554;12.068;2022-12-10T16:02:54;9.20;95.90
53645;DHT22;39547;45.554;12.068;2022-12-10T16:08:57;9.20;95.90
53645;DHT22;39547;45.554;12.068;2022-12-10T16:14:59;9.20;95.90
53645;DHT22;39547;45.554;12.068;2022-12-10T16:21:04;9.20;95.90
53645;DHT22;39547;45.554;12.068;2022-12-10T16:27:13;9.10;95.90
53645;DHT22;39547;45.554;12.068;2022-12-10T16:33:20;9.10;95.90
53645;DHT22;39547;45.554;12.068;2022-12-10T16:39:22;9.10;95.90
53645;DHT22;39547;45.554;12.068;2022-12-10T16:45:37;9.10;95.90
53645;DHT22;39547;45.554;12.068;2022-12-10T16:51:39;9.10;95.90
53645;DHT22;39547;45.554;12.068;2022-12-10T16:57:42;9.00;95.90
53645;DHT22;39547;45.554;12.068;2022-12-10T17:03:48;9.10;95.90
53645;DHT22;39547;45.554;12.068;2022-12-10T17:09:49;9.00;95.90
53645;DHT22;39547;45.554;12.068;2022-12-10T17:15:51;9.00;95.90
53645;DHT22;39547;45.554;12.068;2022-12-10T17:21:53;9.00;95.90
53645;DHT22;39547;45.554;12.068;2022-12-10T17:27:55;9.00;95.90
53645;DHT22;39547;45.554;12.068;2022-12-10T17:33:56;9.00;95.90
53645;DHT22;39547;45.554;12.068;2022-12-10T17:39:58;9.00;95.90
53645;DHT22;39547;45.554;12.068;2022-12-10T17:45:59;9.00;95.90
53645;DHT22;39547;45.554;12.068;2022-12-10T17:52:01;9.00;95.80
53645;DHT22;39547;45.554;12.068;2022-12-10T17:58:03;8.90;95.80
53645;DHT22;39547;45.554;12.068;2022-12-10T18:04:04;9.00;95.80
53645;DHT22;39547;45.554;12.068;2022-12-10T18:10:26;9.00;95.80
53645;DHT22;39547;45.554;12.068;2022-12-10T18:16:32;9.00;95.80
53645;DHT22;39547;45.554;12.068;2022-12-10T18:22:35;9.00;95.80
53645;DHT22;39547;45.554;12.068;2022-12-10T18:34:38;9.00;95.80
53645;DHT22;39547;45.554;12.068;2022-12-10T18:40:40;9.10;95.80
53645;DHT22;39547;45.554;12.068;2022-12-10T18:46:42;9.10;95.80
53645;DHT22;39547;45.554;12.068;2022-12-10T18:52:43;9.10;95.90
53645;DHT22;39547;45.554;12.068;2022-12-10T18:58:45;9.10;95.80
53645;DHT22;39547;45.554;12.068;2022-12-10T19:04:47;9.10;95.80
53645;DHT22;39547;45.554;12.068;2022-12-10T19:10:49;9.10;95.80
53645;DHT22;39547;45.554;12.068;2022-12-10T19:16:50;9.10;95.80
53645;DHT22;39547;45.554;12.068;2022-12-10T19:22:52;9.10;95.80
53645;DHT22;39547;45.554;12.068;2022-12-10T19:28:55;9.10;95.80
53645;DHT22;39547;45.554;12.068;2022-12-10T19:34:57;9.10;95.80
53645;DHT22;39547;45.554;12.068;2022-12-10T19:40:58;9.00;95.80
53645;DHT22;39547;45.554;12.068;2022-12-10T19:47:00;9.00;95.80
53645;DHT22;39547;45.554;12.068;2022-12-10T19:53:02;9.00;95.80
53645;DHT22;39547;45.554;12.068;2022-12-10T19:59:13;8.90;95.80
53645;DHT22;39547;45.554;12.068;2022-12-10T20:05:15;9.00;95.80
53645;DHT22;39547;45.554;12.068;2022-12-10T20:11:17;8.90;95.80
53645;DHT22;39547;45.554;12.068;2022-12-10T20:17:18;8.90;95.70
53645;DHT22;39547;45.554;12.068;2022-12-10T20:23:22;8.90;95.70
53645;DHT22;39547;45.554;12.068;2022-12-10T20:29:25;8.80;95.70
53645;DHT22;39547;45.554;12.068;2022-12-10T20:35:27;8.80;95.70
53645;DHT22;39547;45.554;12.068;2022-12-10T20:41:30;8.80;95.70
53645;DHT22;39547;45.554;12.068;2022-12-10T20:47:32;8.80;95.70
53645;DHT22;39547;45.554;12.068;2022-12-10T20:53:33;8.70;95.70
53645;DHT22;39547;45.554;12.068;2022-12-10T20:59:34;8.70;95.70
53645;DHT22;39547;45.554;12.068;2022-12-10T21:05:36;8.70;95.80
53645;DHT22;39547;45.554;12.068;2022-12-10T21:11:38;8.80;95.80
53645;DHT22;39547;45.554;12.068;2022-12-10T21:17:39;8.70;95.80
53645;DHT22;39547;45.554;12.068;2022-12-10T21:23:41;8.70;95.70
53645;DHT22;39547;45.554;12.068;2022-12-10T21:29:42;8.70;95.70
53645;DHT22;39547;45.554;12.068;2022-12-10T21:35:44;8.70;95.80
53645;DHT22;39547;45.554;12.068;2022-12-10T21:41:45;8.60;95.70
53645;DHT22;39547;45.554;12.068;2022-12-10T21:48:11;8.60;95.80
53645;DHT22;39547;45.554;12.068;2022-12-10T21:54:13;8.50;95.70
53645;DHT22;39547;45.554;12.068;2022-12-10T22:00:15;8.50;95.70
53645;DHT22;39547;45.554;12.068;2022-12-10T22:06:22;8.50;95.70
53645;DHT22;39547;45.554;12.068;2022-12-10T22:12:24;8.40;95.70
53645;DHT22;39547;45.554;12.068;2022-12-10T22:18:25;8.40;95.70
53645;DHT22;39547;45.554;12.068;2022-12-10T22:24:26;8.40;95.70
53645;DHT22;39547;45.554;12.068;2022-12-10T22:30:28;8.40;95.70
53645;DHT22;39547;45.554;12.068;2022-12-10T22:36:30;8.40;95.70
53645;DHT22;39547;45.554;12.068;2022-12-10T22:42:35;8.40;95.70
53645;DHT22;39547;45.554;12.068;2022-12-10T22:48:40;8.40;95.70
53645;DHT22;39547;45.554;12.068;2022-12-10T22:54:41;8.40;95.70
53645;DHT22;39547;45.554;12.068;2022-12-10T23:00:45;8.40;95.70
53645;DHT22;39547;45.554;12.068;2022-12-10T23:06:47;8.40;95.70
53645;DHT22;39547;45.554;12.068;2022-12-10T23:12:49;8.30;95.60
53645;DHT22;39547;45.554;12.068;2022-12-10T23:19:08;8.30;95.50
53645;DHT22;39547;45.554;12.068;2022-12-10T23:25:09;8.30;95.50
53645;DHT22;39547;45.554;12.068;2022-12-10T23:31:12;8.20;95.60
53645;DHT22;39547;45.554;12.068;2022-12-10T23:37:13;8.30;95.60
53645;DHT22;39547;45.554;12.068;2022-12-10T23:43:15;8.30;95.60
53645;DHT22;39547;45.554;12.068;2022-12-10T23:49:16;8.30;95.60
53645;DHT22;39547;45.554;12.068;2022-12-10T23:55:18;8.30;95.50
